sensor_id;sensor_type;location;lat;lon;timestamp;pressure;altitude;pressure_sealevel;temperature;humidity
77737;BME280;66903;59.926;30.404;2023-09-19T00:01:35;101649.50;;;25.44;43.25
77737;BME280;66903;59.926;30.404;2023-09-19T00:06:39;101650.31;;;25.44;43.20
77737;BME280;66903;59.926;30.404;2023-09-19T00:11:39;101641.47;;;25.41;43.22
77737;BME280;66903;59.926;30.404;2023-09-19T00:16:41;101640.34;;;25.42;43.06
77737;BME280;66903;59.926;30.404;2023-09-19T00:21:42;101641.47;;;25.41;43.35
77737;BME280;66903;59.926;30.404;2023-09-19T00:26:43;101636.91;;;25.40;43.21
77737;BME280;66903;59.926;30.404;2023-09-19T00:31:44;101625.47;;;25.40;43.24
77737;BME280;66903;59.926;30.404;2023-09-19T00:36:44;101635.19;;;25.39;43.09
77737;BME280;66903;59.926;30.404;2023-09-19T00:41:45;101622.03;;;25.38;43.19
77737;BME280;66903;59.926;30.404;2023-09-19T00:46:46;101614.63;;;25.37;43.38
77737;BME280;66903;59.926;30.404;2023-09-19T00:51:49;101619.44;;;25.36;43.27
77737;BME280;66903;59.926;30.404;2023-09-19T00:56:50;101616.88;;;25.35;43.27
77737;BME280;66903;59.926;30.404;2023-09-19T01:01:51;101614.03;;;25.35;43.21
77737;BME280;66903;59.926;30.404;2023-09-19T01:06:54;101598.88;;;25.34;43.07
77737;BME280;66903;59.926;30.404;2023-09-19T01:11:58;101593.16;;;25.34;43.21
77737;BME280;66903;59.926;30.404;2023-09-19T01:17:37;101565.97;;;25.32;43.07
77737;BME280;66903;59.926;30.404;2023-09-19T01:28:14;101558.81;;;25.34;42.97
77737;BME280;66903;59.926;30.404;2023-09-19T01:33:15;101540.53;;;25.30;42.83
77737;BME280;66903;59.926;30.404;2023-09-19T01:38:19;101528.53;;;25.28;42.87
77737;BME280;66903;59.926;30.404;2023-09-19T01:43:27;101521.97;;;25.28;42.67
77737;BME280;66903;59.926;30.404;2023-09-19T01:48:42;101519.13;;;25.28;42.63
77737;BME280;66903;59.926;30.404;2023-09-19T01:54:30;101500.56;;;25.20;42.63
77737;BME280;66903;59.926;30.404;2023-09-19T01:59:13;101483.97;;;25.22;42.60
77737;BME280;66903;59.926;30.404;2023-09-19T02:04:16;101493.16;;;25.19;42.33
77737;BME280;66903;59.926;30.404;2023-09-19T02:09:17;101473.41;;;25.17;42.45
77737;BME280;66903;59.926;30.404;2023-09-19T02:14:17;101467.97;;;25.16;42.40
77737;BME280;66903;59.926;30.404;2023-09-19T02:19:19;101456.84;;;25.14;42.22
77737;BME280;66903;59.926;30.404;2023-09-19T02:24:21;101460.88;;;25.13;42.54
77737;BME280;66903;59.926;30.404;2023-09-19T02:29:21;101442.53;;;25.14;42.67
77737;BME280;66903;59.926;30.404;2023-09-19T02:34:23;101421.66;;;25.14;42.21
77737;BME280;66903;59.926;30.404;2023-09-19T02:39:23;101417.97;;;25.13;42.35
77737;BME280;66903;59.926;30.404;2023-09-19T02:44:24;101404.81;;;25.12;42.23
77737;BME280;66903;59.926;30.404;2023-09-19T02:49:24;101397.41;;;25.11;42.23
77737;BME280;66903;59.926;30.404;2023-09-19T02:54:25;101387.66;;;25.12;42.39
77737;BME280;66903;59.926;30.404;2023-09-19T02:59:26;101378.25;;;25.12;41.97
77737;BME280;66903;59.926;30.404;2023-09-19T03:04:26;101365.09;;;25.11;42.15
77737;BME280;66903;59.926;30.404;2023-09-19T03:09:27;101369.13;;;25.10;42.13
77737;BME280;66903;59.926;30.404;2023-09-19T03:14:28;101361.66;;;25.09;41.99
77737;BME280;66903;59.926;30.404;2023-09-19T03:19:30;101350.53;;;25.07;42.09
77737;BME280;66903;59.926;30.404;2023-09-19T03:24:33;101345.13;;;25.06;42.28
77737;BME280;66903;59.926;30.404;2023-09-19T03:29:36;101349.16;;;25.05;41.81
77737;BME280;66903;59.926;30.404;2023-09-19T03:34:39;101331.13;;;25.04;42.27
77737;BME280;66903;59.926;30.404;2023-09-19T03:39:43;101327.56;;;25.23;41.73
77737;BME280;66903;59.926;30.404;2023-09-19T03:44:43;101311.06;;;25.09;42.18
77737;BME280;66903;59.926;30.404;2023-09-19T03:49:44;101282.22;;;25.06;41.83
77737;BME280;66903;59.926;30.404;2023-09-19T03:54:45;101280.53;;;25.05;42.10
77737;BME280;66903;59.926;30.404;2023-09-19T03:59:46;101267.06;;;25.05;41.77
77737;BME280;66903;59.926;30.404;2023-09-19T04:04:46;101255.63;;;25.05;42.21
77737;BME280;66903;59.926;30.404;2023-09-19T04:09:47;101250.78;;;25.06;42.11
77737;BME280;66903;59.926;30.404;2023-09-19T04:14:49;101223.63;;;25.03;42.03
77737;BME280;66903;59.926;30.404;2023-09-19T04:19:50;101225.47;;;24.94;41.42
77737;BME280;66903;59.926;30.404;2023-09-19T04:24:51;101212.97;;;24.85;41.87
77737;BME280;66903;59.926;30.404;2023-09-19T04:29:51;101210.44;;;24.79;42.42
77737;BME280;66903;59.926;30.404;2023-09-19T04:34:53;101185.94;;;24.73;42.60
77737;BME280;66903;59.926;30.404;2023-09-19T04:39:55;101189.34;;;24.75;42.70
77737;BME280;66903;59.926;30.404;2023-09-19T04:44:55;101174.75;;;24.76;43.31
77737;BME280;66903;59.926;30.404;2023-09-19T04:49:56;101163.56;;;24.80;43.13
77737;BME280;66903;59.926;30.404;2023-09-19T04:54:59;101153.84;;;24.81;43.42
77737;BME280;66903;59.926;30.404;2023-09-19T04:59:59;101158.13;;;24.83;43.40
77737;BME280;66903;59.926;30.404;2023-09-19T05:05:00;101154.66;;;24.86;42.85
77737;BME280;66903;59.926;30.404;2023-09-19T05:10:01;101145.22;;;24.86;43.04
77737;BME280;66903;59.926;30.404;2023-09-19T05:15:05;101124.94;;;24.87;43.02
77737;BME280;66903;59.926;30.404;2023-09-19T05:20:10;101123.50;;;24.85;42.80
77737;BME280;66903;59.926;30.404;2023-09-19T05:25:16;101114.94;;;24.85;42.91
77737;BME280;66903;59.926;30.404;2023-09-19T05:30:18;101106.69;;;24.83;42.98
77737;BME280;66903;59.926;30.404;2023-09-19T05:35:20;101106.06;;;24.86;42.84
77737;BME280;66903;59.926;30.404;2023-09-19T05:40:22;101094.63;;;24.86;42.87
77737;BME280;66903;59.926;30.404;2023-09-19T05:45:22;101080.59;;;24.90;42.45
77737;BME280;66903;59.926;30.404;2023-09-19T05:50:23;101064.63;;;24.89;42.50
77737;BME280;66903;59.926;30.404;2023-09-19T05:55:24;101054.88;;;24.90;42.36
77737;BME280;66903;59.926;30.404;2023-09-19T06:00:25;101059.72;;;24.89;42.00
77737;BME280;66903;59.926;30.404;2023-09-19T06:05:28;101061.13;;;24.92;42.16
77737;BME280;66903;59.926;30.404;2023-09-19T06:10:30;101050.56;;;24.92;42.02
77737;BME280;66903;59.926;30.404;2023-09-19T06:15:32;101047.09;;;24.95;42.25
77737;BME280;66903;59.926;30.404;2023-09-19T06:20:33;101023.84;;;25.02;41.98
77737;BME280;66903;59.926;30.404;2023-09-19T06:25:37;101027.09;;;25.19;41.85
77737;BME280;66903;59.926;30.404;2023-09-19T06:30:38;101021.88;;;25.45;41.22
77737;BME280;66903;59.926;30.404;2023-09-19T06:35:42;101011.03;;;25.79;40.87
77737;BME280;66903;59.926;30.404;2023-09-19T06:40:45;100998.97;;;26.19;40.72
77737;BME280;66903;59.926;30.404;2023-09-19T06:45:45;100991.41;;;26.55;40.26
77737;BME280;66903;59.926;30.404;2023-09-19T06:50:46;100983.38;;;26.84;39.65
77737;BME280;66903;59.926;30.404;2023-09-19T06:55:48;100982.72;;;27.14;39.12
77737;BME280;66903;59.926;30.404;2023-09-19T07:00:48;100974.78;;;27.39;38.98
77737;BME280;66903;59.926;30.404;2023-09-19T07:05:50;100959.25;;;27.62;38.65
77737;BME280;66903;59.926;30.404;2023-09-19T07:10:51;100939.34;;;27.79;38.23
77737;BME280;66903;59.926;30.404;2023-09-19T07:15:53;100946.28;;;27.86;38.49
77737;BME280;66903;59.926;30.404;2023-09-19T07:20:57;100940.84;;;27.98;38.17
77737;BME280;66903;59.926;30.404;2023-09-19T07:26:01;100933.31;;;28.11;38.19
77737;BME280;66903;59.926;30.404;2023-09-19T07:31:05;100942.38;;;28.26;37.96
77737;BME280;66903;59.926;30.404;2023-09-19T07:36:09;100936.72;;;28.13;37.83
77737;BME280;66903;59.926;30.404;2023-09-19T07:41:11;100937.66;;;28.00;37.70
77737;BME280;66903;59.926;30.404;2023-09-19T07:46:11;100914.59;;;28.13;38.10
77737;BME280;66903;59.926;30.404;2023-09-19T07:51:12;100909.16;;;28.03;37.75
77737;BME280;66903;59.926;30.404;2023-09-19T07:56:14;100907.28;;;27.85;38.32
77737;BME280;66903;59.926;30.404;2023-09-19T08:01:15;100885.03;;;27.69;38.51
77737;BME280;66903;59.926;30.404;2023-09-19T08:06:16;100872.75;;;27.55;39.21
77737;BME280;66903;59.926;30.404;2023-09-19T08:11:17;100870.81;;;27.42;39.38
77737;BME280;66903;59.926;30.404;2023-09-19T08:16:21;100855.03;;;27.31;39.75
77737;BME280;66903;59.926;30.404;2023-09-19T08:21:23;100862.66;;;27.21;39.54
77737;BME280;66903;59.926;30.404;2023-09-19T08:26:24;100853.66;;;27.14;40.24
77737;BME280;66903;59.926;30.404;2023-09-19T08:31:25;100853.78;;;27.09;39.76
77737;BME280;66903;59.926;30.404;2023-09-19T08:36:26;100848.72;;;27.06;39.88
77737;BME280;66903;59.926;30.404;2023-09-19T08:41:27;100830.19;;;27.12;40.18
77737;BME280;66903;59.926;30.404;2023-09-19T08:46:30;100831.13;;;27.21;40.24
77737;BME280;66903;59.926;30.404;2023-09-19T08:51:43;100824.06;;;27.41;39.72
77737;BME280;66903;59.926;30.404;2023-09-19T08:56:47;100807.16;;;27.62;39.98
77737;BME280;66903;59.926;30.404;2023-09-19T09:01:48;100801.91;;;27.86;39.77
77737;BME280;66903;59.926;30.404;2023-09-19T09:06:51;100780.28;;;28.10;39.00
77737;BME280;66903;59.926;30.404;2023-09-19T09:11:54;100770.06;;;28.35;38.67
77737;BME280;66903;59.926;30.404;2023-09-19T09:16:57;100755.41;;;28.54;38.78
77737;BME280;66903;59.926;30.404;2023-09-19T09:22:10;100753.56;;;28.75;38.36
77737;BME280;66903;59.926;30.404;2023-09-19T09:27:12;100726.84;;;28.83;38.16
77737;BME280;66903;59.926;30.404;2023-09-19T09:37:20;100708.75;;;28.99;38.12
77737;BME280;66903;59.926;30.404;2023-09-19T09:42:32;100694.19;;;29.04;37.84
77737;BME280;66903;59.926;30.404;2023-09-19T09:47:48;100691.13;;;29.09;38.35
77737;BME280;66903;59.926;30.404;2023-09-19T09:52:59;100684.41;;;29.05;38.53
77737;BME280;66903;59.926;30.404;2023-09-19T09:58:16;100687.94;;;29.11;38.69
77737;BME280;66903;59.926;30.404;2023-09-19T10:03:21;100684.75;;;29.12;38.73
77737;BME280;66903;59.926;30.404;2023-09-19T10:08:23;100666.63;;;29.12;38.36
77737;BME280;66903;59.926;30.404;2023-09-19T10:13:25;100667.94;;;29.23;38.67
77737;BME280;66903;59.926;30.404;2023-09-19T10:18:31;100671.69;;;29.23;38.81
77737;BME280;66903;59.926;30.404;2023-09-19T10:23:33;100645.97;;;29.18;39.26
77737;BME280;66903;59.926;30.404;2023-09-19T10:28:37;100646.66;;;29.15;39.40
77737;BME280;66903;59.926;30.404;2023-09-19T10:33:38;100626.88;;;29.14;39.21
77737;BME280;66903;59.926;30.404;2023-09-19T10:38:43;100620.06;;;29.18;39.63
77737;BME280;66903;59.926;30.404;2023-09-19T10:43:45;100606.03;;;29.17;39.98
77737;BME280;66903;59.926;30.404;2023-09-19T10:48:50;100600.97;;;29.14;39.87
77737;BME280;66903;59.926;30.404;2023-09-19T10:53:58;100594.53;;;29.17;39.59
77737;BME280;66903;59.926;30.404;2023-09-19T10:59:11;100578.34;;;29.42;39.52
77737;BME280;66903;59.926;30.404;2023-09-19T11:04:32;100578.19;;;29.76;39.47
77737;BME280;66903;59.926;30.404;2023-09-19T11:10:02;100572.50;;;29.59;39.02
77737;BME280;66903;59.926;30.404;2023-09-19T11:15:05;100567.91;;;29.28;39.88
77737;BME280;66903;59.926;30.404;2023-09-19T11:30:30;100564.25;;;29.02;40.15
77737;BME280;66903;59.926;30.404;2023-09-19T11:46:33;100536.91;;;28.79;41.10
77737;BME280;66903;59.926;30.404;2023-09-19T11:51:40;100534.22;;;28.74;41.00
77737;BME280;66903;59.926;30.404;2023-09-19T11:56:43;100526.47;;;28.66;41.36
77737;BME280;66903;59.926;30.404;2023-09-19T12:01:51;100526.66;;;28.61;41.69
77737;BME280;66903;59.926;30.404;2023-09-19T12:06:57;100531.56;;;28.52;41.53
77737;BME280;66903;59.926;30.404;2023-09-19T12:11:59;100511.09;;;28.45;42.11
77737;BME280;66903;59.926;30.404;2023-09-19T12:16:59;100516.69;;;28.42;42.14
77737;BME280;66903;59.926;30.404;2023-09-19T12:22:03;100510.59;;;28.34;42.21
77737;BME280;66903;59.926;30.404;2023-09-19T12:27:06;100493.88;;;28.28;42.38
77737;BME280;66903;59.926;30.404;2023-09-19T12:32:07;100495.75;;;28.24;42.15
77737;BME280;66903;59.926;30.404;2023-09-19T12:37:12;100488.97;;;28.20;42.72
77737;BME280;66903;59.926;30.404;2023-09-19T12:42:23;100487.31;;;28.19;42.37
77737;BME280;66903;59.926;30.404;2023-09-19T12:47:24;100469.06;;;28.15;42.57
77737;BME280;66903;59.926;30.404;2023-09-19T12:52:25;100467.03;;;28.07;42.76
77737;BME280;66903;59.926;30.404;2023-09-19T12:57:26;100468.72;;;28.08;43.02
77737;BME280;66903;59.926;30.404;2023-09-19T13:02:27;100455.38;;;28.03;43.40
77737;BME280;66903;59.926;30.404;2023-09-19T13:07:45;100439.84;;;28.04;42.58
77737;BME280;66903;59.926;30.404;2023-09-19T13:12:47;100431.06;;;28.01;43.43
77737;BME280;66903;59.926;30.404;2023-09-19T13:17:49;100425.66;;;27.99;43.52
77737;BME280;66903;59.926;30.404;2023-09-19T13:22:50;100407.56;;;27.99;43.30
77737;BME280;66903;59.926;30.404;2023-09-19T13:27:55;100400.50;;;27.96;43.75
77737;BME280;66903;59.926;30.404;2023-09-19T13:33:09;100400.50;;;27.96;43.40
77737;BME280;66903;59.926;30.404;2023-09-19T13:38:10;100397.47;;;27.93;43.51
77737;BME280;66903;59.926;30.404;2023-09-19T13:43:11;100398.09;;;27.90;43.97
77737;BME280;66903;59.926;30.404;2023-09-19T13:48:12;100383.56;;;27.86;43.39
77737;BME280;66903;59.926;30.404;2023-09-19T13:53:12;100380.53;;;27.83;43.72
77737;BME280;66903;59.926;30.404;2023-09-19T13:58:13;100372.59;;;27.80;43.87
77737;BME280;66903;59.926;30.404;2023-09-19T14:03:13;100362.31;;;27.79;44.05
77737;BME280;66903;59.926;30.404;2023-09-19T14:08:14;100374.13;;;27.77;43.99
77737;BME280;66903;59.926;30.404;2023-09-19T14:13:15;100357.25;;;27.76;44.06
77737;BME280;66903;59.926;30.404;2023-09-19T14:18:15;100354.88;;;27.78;44.56
77737;BME280;66903;59.926;30.404;2023-09-19T14:23:16;100346.28;;;27.78;44.19
77737;BME280;66903;59.926;30.404;2023-09-19T14:28:17;100337.16;;;27.76;44.36
77737;BME280;66903;59.926;30.404;2023-09-19T14:33:17;100329.91;;;27.70;44.37
77737;BME280;66903;59.926;30.404;2023-09-19T14:38:18;100323.16;;;27.66;44.60
77737;BME280;66903;59.926;30.404;2023-09-19T14:43:18;100310.81;;;27.65;44.68
77737;BME280;66903;59.926;30.404;2023-09-19T14:48:19;100301.06;;;27.66;45.13
77737;BME280;66903;59.926;30.404;2023-09-19T14:53:20;100297.00;;;27.67;44.96
77737;BME280;66903;59.926;30.404;2023-09-19T14:58:21;100288.03;;;27.69;45.23
77737;BME280;66903;59.926;30.404;2023-09-19T15:03:21;100276.56;;;27.69;44.89
77737;BME280;66903;59.926;30.404;2023-09-19T15:08:22;100281.47;;;27.68;45.46
77737;BME280;66903;59.926;30.404;2023-09-19T15:13:23;100276.03;;;27.67;45.09
77737;BME280;66903;59.926;30.404;2023-09-19T15:18:30;100266.63;;;27.66;45.29
77737;BME280;66903;59.926;30.404;2023-09-19T15:23:31;100269.84;;;27.65;45.63
77737;BME280;66903;59.926;30.404;2023-09-19T15:28:37;100262.91;;;27.66;45.67
77737;BME280;66903;59.926;30.404;2023-09-19T15:33:38;100258.34;;;27.65;45.44
77737;BME280;66903;59.926;30.404;2023-09-19T15:39:01;100250.56;;;27.65;44.95
77737;BME280;66903;59.926;30.404;2023-09-19T15:44:04;100240.13;;;27.61;45.27
77737;BME280;66903;59.926;30.404;2023-09-19T15:49:05;100227.28;;;27.58;45.73
77737;BME280;66903;59.926;30.404;2023-09-19T15:54:15;100225.97;;;27.56;45.57
77737;BME280;66903;59.926;30.404;2023-09-19T15:59:16;100215.50;;;27.51;46.02
77737;BME280;66903;59.926;30.404;2023-09-19T16:04:16;100206.06;;;27.51;45.37
77737;BME280;66903;59.926;30.404;2023-09-19T16:09:17;100206.72;;;27.48;45.51
77737;BME280;66903;59.926;30.404;2023-09-19T16:14:18;100209.09;;;27.46;46.16
77737;BME280;66903;59.926;30.404;2023-09-19T16:19:19;100205.22;;;27.42;46.31
77737;BME280;66903;59.926;30.404;2023-09-19T16:24:19;100206.41;;;27.41;45.85
77737;BME280;66903;59.926;30.404;2023-09-19T16:29:20;100199.00;;;27.40;46.29
77737;BME280;66903;59.926;30.404;2023-09-19T16:34:24;100192.75;;;27.38;46.58
77737;BME280;66903;59.926;30.404;2023-09-19T16:39:26;100184.13;;;27.38;46.93
77737;BME280;66903;59.926;30.404;2023-09-19T16:44:26;100183.44;;;27.41;46.67
77737;BME280;66903;59.926;30.404;2023-09-19T16:49:30;100180.28;;;27.42;46.99
77737;BME280;66903;59.926;30.404;2023-09-19T16:54:30;100172.13;;;27.44;47.19
77737;BME280;66903;59.926;30.404;2023-09-19T16:59:31;100175.84;;;27.45;47.33
77737;BME280;66903;59.926;30.404;2023-09-19T17:04:31;100179.78;;;27.32;45.82
77737;BME280;66903;59.926;30.404;2023-09-19T17:09:32;100166.28;;;26.64;46.82
77737;BME280;66903;59.926;30.404;2023-09-19T17:14:35;100153.06;;;26.03;47.82
77737;BME280;66903;59.926;30.404;2023-09-19T17:19:36;100142.13;;;25.66;48.29
77737;BME280;66903;59.926;30.404;2023-09-19T17:24:38;100149.75;;;25.40;48.26
77737;BME280;66903;59.926;30.404;2023-09-19T17:29:40;100141.16;;;25.17;48.21
77737;BME280;66903;59.926;30.404;2023-09-19T17:34:41;100135.72;;;25.07;48.37
77737;BME280;66903;59.926;30.404;2023-09-19T17:39:42;100141.38;;;24.99;48.08
77737;BME280;66903;59.926;30.404;2023-09-19T17:44:43;100134.75;;;24.90;48.37
77737;BME280;66903;59.926;30.404;2023-09-19T17:49:43;100129.72;;;24.87;48.02
77737;BME280;66903;59.926;30.404;2023-09-19T17:54:44;100125.34;;;24.89;47.84
77737;BME280;66903;59.926;30.404;2023-09-19T17:59:45;100125.66;;;24.88;47.90
77737;BME280;66903;59.926;30.404;2023-09-19T18:04:46;100128.53;;;24.88;47.82
77737;BME280;66903;59.926;30.404;2023-09-19T18:09:46;100121.31;;;24.90;47.60
77737;BME280;66903;59.926;30.404;2023-09-19T18:14:47;100117.63;;;24.90;47.54
77737;BME280;66903;59.926;30.404;2023-09-19T18:19:48;100112.22;;;24.88;47.70
77737;BME280;66903;59.926;30.404;2023-09-19T18:24:51;100100.28;;;24.86;47.54
77737;BME280;66903;59.926;30.404;2023-09-19T18:29:51;100091.00;;;24.81;47.37
77737;BME280;66903;59.926;30.404;2023-09-19T18:34:53;100095.38;;;24.78;47.47
77737;BME280;66903;59.926;30.404;2023-09-19T18:39:54;100062.25;;;24.77;47.69
77737;BME280;66903;59.926;30.404;2023-09-19T18:44:55;100086.28;;;24.76;47.33
77737;BME280;66903;59.926;30.404;2023-09-19T18:49:56;100069.78;;;24.73;47.76
77737;BME280;66903;59.926;30.404;2023-09-19T18:54:56;100050.28;;;24.75;47.68
77737;BME280;66903;59.926;30.404;2023-09-19T18:59:57;100043.44;;;24.76;47.70
77737;BME280;66903;59.926;30.404;2023-09-19T19:04:58;100039.72;;;24.76;47.79
77737;BME280;66903;59.926;30.404;2023-09-19T19:09:59;100029.00;;;24.81;47.76
77737;BME280;66903;59.926;30.404;2023-09-19T19:14:59;100011.06;;;24.89;47.59
77737;BME280;66903;59.926;30.404;2023-09-19T19:20:01;99999.69;;;24.98;47.73
77737;BME280;66903;59.926;30.404;2023-09-19T19:25:08;100003.09;;;25.08;47.35
77737;BME280;66903;59.926;30.404;2023-09-19T19:30:10;100006.31;;;25.15;47.14
77737;BME280;66903;59.926;30.404;2023-09-19T19:35:11;99975.53;;;25.21;47.11
77737;BME280;66903;59.926;30.404;2023-09-19T19:40:13;99978.13;;;25.31;47.07
77737;BME280;66903;59.926;30.404;2023-09-19T19:45:13;99978.19;;;25.40;47.02
77737;BME280;66903;59.926;30.404;2023-09-19T19:50:14;99967.09;;;25.47;46.84
77737;BME280;66903;59.926;30.404;2023-09-19T19:55:16;99976.69;;;25.51;46.88
77737;BME280;66903;59.926;30.404;2023-09-19T20:00:18;99979.41;;;25.56;47.00
77737;BME280;66903;59.926;30.404;2023-09-19T20:05:20;99994.72;;;25.68;47.19
77737;BME280;66903;59.926;30.404;2023-09-19T20:10:21;100016.78;;;25.85;47.55
77737;BME280;66903;59.926;30.404;2023-09-19T20:15:22;99996.59;;;25.98;47.42
77737;BME280;66903;59.926;30.404;2023-09-19T20:20:25;100010.75;;;26.03;47.80
77737;BME280;66903;59.926;30.404;2023-09-19T20:25:27;100014.47;;;26.04;47.72
77737;BME280;66903;59.926;30.404;2023-09-19T20:30:28;100001.50;;;25.98;48.08
77737;BME280;66903;59.926;30.404;2023-09-19T20:35:29;100019.13;;;25.91;48.33
77737;BME280;66903;59.926;30.404;2023-09-19T20:40:29;100022.69;;;25.88;48.26
77737;BME280;66903;59.926;30.404;2023-09-19T20:45:31;100016.63;;;25.90;48.71
77737;BME280;66903;59.926;30.404;2023-09-19T20:50:33;100030.25;;;25.93;48.66
77737;BME280;66903;59.926;30.404;2023-09-19T20:55:34;100053.13;;;25.84;49.01
77737;BME280;66903;59.926;30.404;2023-09-19T21:00:39;100068.78;;;25.70;49.49
77737;BME280;66903;59.926;30.404;2023-09-19T21:05:41;100052.63;;;25.35;50.67
77737;BME280;66903;59.926;30.404;2023-09-19T21:10:42;100072.28;;;24.97;52.09
77737;BME280;66903;59.926;30.404;2023-09-19T21:15:42;100062.25;;;24.77;52.95
77737;BME280;66903;59.926;30.404;2023-09-19T21:20:43;100051.72;;;24.86;53.07
77737;BME280;66903;59.926;30.404;2023-09-19T21:25:56;100053.66;;;24.99;52.70
77737;BME280;66903;59.926;30.404;2023-09-19T21:31:04;100046.59;;;25.05;52.67
77737;BME280;66903;59.926;30.404;2023-09-19T21:36:06;100036.53;;;25.08;52.94
77737;BME280;66903;59.926;30.404;2023-09-19T21:41:11;100053.69;;;25.08;53.11
77737;BME280;66903;59.926;30.404;2023-09-19T21:46:12;100047.63;;;25.09;53.27
77737;BME280;66903;59.926;30.404;2023-09-19T21:51:14;100051.88;;;25.12;53.28
77737;BME280;66903;59.926;30.404;2023-09-19T21:56:15;100071.72;;;25.17;53.28
77737;BME280;66903;59.926;30.404;2023-09-19T22:01:18;100070.34;;;25.14;53.11
77737;BME280;66903;59.926;30.404;2023-09-19T22:06:21;100082.28;;;25.08;53.71
77737;BME280;66903;59.926;30.404;2023-09-19T22:11:22;100079.22;;;25.04;53.53
77737;BME280;66903;59.926;30.404;2023-09-19T22:16:23;100070.47;;;25.01;53.71
77737;BME280;66903;59.926;30.404;2023-09-19T22:21:25;100080.16;;;24.91;53.90
77737;BME280;66903;59.926;30.404;2023-09-19T22:26:38;100081.66;;;24.89;53.75
77737;BME280;66903;59.926;30.404;2023-09-19T22:31:42;100086.72;;;24.92;53.89
77737;BME280;66903;59.926;30.404;2023-09-19T22:36:44;100087.94;;;24.99;53.99
77737;BME280;66903;59.926;30.404;2023-09-19T22:41:44;100093.69;;;25.08;53.98
77737;BME280;66903;59.926;30.404;2023-09-19T22:46:46;100097.06;;;25.10;54.16
77737;BME280;66903;59.926;30.404;2023-09-19T22:51:48;100093.38;;;25.09;54.08
77737;BME280;66903;59.926;30.404;2023-09-19T22:56:55;100098.56;;;25.07;54.31
77737;BME280;66903;59.926;30.404;2023-09-19T23:01:55;100101.97;;;25.18;54.36
77737;BME280;66903;59.926;30.404;2023-09-19T23:06:57;100116.31;;;25.27;54.38
77737;BME280;66903;59.926;30.404;2023-09-19T23:12:05;100132.94;;;25.25;53.46
77737;BME280;66903;59.926;30.404;2023-09-19T23:17:17;100123.19;;;25.17;53.78
77737;BME280;66903;59.926;30.404;2023-09-19T23:22:22;100125.53;;;25.15;53.90
77737;BME280;66903;59.926;30.404;2023-09-19T23:27:23;100126.22;;;25.21;53.33
77737;BME280;66903;59.926;30.404;2023-09-19T23:32:34;100124.66;;;25.14;53.44
77737;BME280;66903;59.926;30.404;2023-09-19T23:37:35;100136.91;;;25.06;53.82
77737;BME280;66903;59.926;30.404;2023-09-19T23:42:35;100145.91;;;25.00;53.79
77737;BME280;66903;59.926;30.404;2023-09-19T23:47:36;100143.38;;;24.98;53.78
77737;BME280;66903;59.926;30.404;2023-09-19T23:52:38;100135.84;;;25.02;53.14
77737;BME280;66903;59.926;30.404;2023-09-19T23:57:39;100142.28;;;24.86;52.77
